Lompico, California
Current Conditions -  °F | °C
As of 10:53 PM on Sunday 21 Dec 2014 (Local Time) from KWVI Reporting Station
Moderate Fog Moderate Fog  
Wind Chill: 15°   Ceiling: 200
Heat Index: 15°   Visibility: 0.5mi
Dew Point: 14°   Wind: 0mph
Humidity: 96%   Direction: NA
Pressure: 30.29"   Gusts: NA
Location:  37.0802°N, 122.052°W
Report Text: KWVI 220653Z AUTO 00000KT 1/2SM FG VV002 15/14 A3029 RMK AO2 SLP256 T01500144
Loading
Personal Weather Stations






























Interactive Weather Map New forecast layout! Learn more

10-Day Weather Forecast

Advertisements
Track Severe Weather on mobile